Time;durP1;ratioP1;P1;durP2;ratioP2;P2;SDS_P1;SDS_P2;PMS_P1;PMS_P2;Temp;Humidity;BMP_temperature;BMP_pressure;BME280_temperature;BME280_humidity;BME280_pressure;Samples;Min_cycle;Max_cycle;Signal;HPM_P1;HPM_P2
2022/02/07 00:01:58;;;;;;;1.48;1.00;;;8.20;77.80;;;;;;5037516;28;20041;-83
2022/02/07 00:04:29;;;;;;;2.65;1.15;;;8.20;77.80;;;;;;5009750;28;20522;-82
2022/02/07 00:06:55;;;;;;;2.83;1.30;;;8.10;77.80;;;;;;5026895;28;20478;-82
2022/02/07 00:09:21;;;;;;;4.07;1.20;;;8.10;77.80;;;;;;4998610;28;20032;-82
2022/02/07 00:11:46;;;;;;;2.33;1.33;;;8.10;77.80;;;;;;4982933;28;20061;-83
2022/02/07 00:14:12;;;;;;;3.35;1.40;;;8.10;77.90;;;;;;4998806;28;20037;-82
2022/02/07 00:16:38;;;;;;;4.00;1.58;;;8.10;77.90;;;;;;5034914;28;20486;-82
2022/02/07 00:19:11;;;;;;;2.78;1.30;;;8.10;77.90;;;;;;4984797;28;20036;-82
2022/02/07 00:21:37;;;;;;;3.53;1.38;;;8.10;77.90;;;;;;5006497;28;20040;-82
2022/02/07 00:24:03;;;;;;;2.20;1.30;;;8.10;77.90;;;;;;5011237;28;20153;-83
2022/02/07 00:26:29;;;;;;;3.30;1.38;;;8.00;77.90;;;;;;5029700;28;20030;-82
2022/02/07 00:28:55;;;;;;;3.13;1.33;;;8.00;77.90;;;;;;5014627;28;20078;-83
2022/02/07 00:31:21;;;;;;;2.95;1.20;;;8.00;77.90;;;;;;5017364;28;20029;-83
2022/02/07 00:33:47;;;;;;;2.83;1.35;;;8.00;77.80;;;;;;5011008;28;20052;-82
2022/02/07 00:36:17;;;;;;;1.52;1.02;;;8.00;77.80;;;;;;5034851;28;20029;-89
2022/02/07 00:38:46;;;;;;;1.70;1.20;;;8.00;77.80;;;;;;5002310;28;20125;-82
2022/02/07 00:41:20;;;;;;;2.95;1.30;;;8.00;77.80;;;;;;5019521;28;20029;-85
2022/02/07 00:43:53;;;;;;;2.40;1.23;;;8.00;77.80;;;;;;5005923;28;20085;-82
2022/02/07 00:46:24;;;;;;;2.53;1.20;;;7.90;77.70;;;;;;5019475;28;20021;-81
2022/02/07 00:48:50;;;;;;;3.30;1.30;;;7.90;77.70;;;;;;5023733;28;20060;-82
2022/02/07 00:51:16;;;;;;;2.20;1.20;;;7.90;77.80;;;;;;5012297;28;20479;-82
2022/02/07 00:53:42;;;;;;;2.47;1.38;;;7.90;77.80;;;;;;5001577;28;20197;-83
2022/02/07 00:56:08;;;;;;;1.88;1.10;;;7.90;77.80;;;;;;5010796;28;20167;-84
2022/02/07 00:58:36;;;;;;;1.33;1.10;;;7.80;77.80;;;;;;5019919;28;20021;-82
2022/02/07 01:01:04;;;;;;;2.20;1.15;;;7.80;77.70;;;;;;5001950;28;20025;-83
2022/02/07 01:03:35;;;;;;;2.13;1.10;;;7.80;77.70;;;;;;5016677;28;20060;-87
2022/02/07 01:06:01;;;;;;;2.08;1.25;;;7.80;77.70;;;;;;5029424;28;20474;-81
2022/02/07 01:08:38;;;;;;;1.48;1.05;;;7.80;77.60;;;;;;5004782;28;20032;-82
2022/02/07 01:11:33;;;;;;;3.03;1.45;;;7.80;77.60;;;;;;5029078;28;20508;-82
2022/02/07 01:14:11;;;;;;;2.58;1.20;;;7.80;77.60;;;;;;4998619;28;20420;-89
2022/02/07 01:22:11;;;;;;;1.42;1.10;;;7.70;77.60;;;;;;5017083;28;20055;-82
2022/02/07 01:57:45;;;;;;;3.50;1.30;;;7.50;77.70;;;;;;5014170;28;20041;-81
2022/02/07 02:00:11;;;;;;;3.00;1.20;;;7.40;77.70;;;;;;5011666;28;20474;-83
2022/02/07 02:02:47;;;;;;;2.67;1.20;;;7.40;77.70;;;;;;4996871;28;20120;-82
2022/02/07 02:05:30;;;;;;;3.30;1.23;;;7.40;77.70;;;;;;5017088;28;20036;-81
2022/02/07 02:07:57;;;;;;;4.03;1.50;;;7.40;77.60;;;;;;5017415;28;20235;-84
2022/02/07 02:10:23;;;;;;;2.53;1.30;;;7.40;77.70;;;;;;5025383;28;20037;-85
2022/02/07 02:13:08;;;;;;;3.35;1.60;;;7.40;77.60;;;;;;5018156;28;20037;-82
2022/02/07 02:15:43;;;;;;;3.47;1.60;;;7.40;77.70;;;;;;5019903;28;20059;-83
2022/02/07 02:47:46;;;;;;;2.90;1.23;;;7.20;77.60;;;;;;5024597;28;20524;-85
2022/02/07 02:50:30;;;;;;;2.33;1.17;;;7.20;77.80;;;;;;5005215;28;20026;-82
2022/02/07 02:52:58;;;;;;;2.55;1.50;;;7.20;77.80;;;;;;5016957;28;20061;-82
2022/02/07 02:55:25;;;;;;;2.38;1.15;;;7.20;77.90;;;;;;5008509;28;20083;-82
2022/02/07 02:57:51;;;;;;;2.10;1.30;;;7.20;77.90;;;;;;5004736;28;20112;-83
2022/02/07 03:00:18;;;;;;;5.93;1.45;;;7.20;77.90;;;;;;5012202;28;20065;-83
2022/02/07 03:02:43;;;;;;;2.67;1.42;;;7.20;77.90;;;;;;4999991;28;20064;-83
2022/02/07 03:05:09;;;;;;;2.80;1.40;;;7.20;77.90;;;;;;5001989;28;20554;-83
2022/02/07 03:07:36;;;;;;;3.72;1.50;;;7.20;77.90;;;;;;5008007;28;20036;-82
2022/02/07 03:10:03;;;;;;;3.88;1.50;;;7.20;77.90;;;;;;4995284;28;20097;-81
2022/02/07 03:12:32;;;;;;;3.75;1.45;;;7.20;77.90;;;;;;5013053;28;20090;-82
2022/02/07 03:16:37;;;;;;;4.63;1.60;;;7.20;77.90;;;;;;5019771;28;20451;-83
2022/02/07 03:17:47;;;;;;;2.65;1.30;;;7.20;77.90;;;;;;5018703;28;20068;-83
2022/02/07 03:20:13;;;;;;;3.85;1.60;;;7.20;77.80;;;;;;5016463;28;20383;-83
2022/02/07 03:22:39;;;;;;;3.47;1.70;;;7.20;77.80;;;;;;5018598;28;20139;-83
2022/02/07 03:25:05;;;;;;;2.88;1.50;;;7.10;77.80;;;;;;5016056;28;20112;-83
2022/02/07 03:27:38;;;;;;;3.28;1.45;;;7.20;77.90;;;;;;5030671;28;20052;-83
2022/02/07 03:30:04;;;;;;;4.20;1.67;;;7.20;77.80;;;;;;5020495;28;20033;-82
2022/02/07 03:32:39;;;;;;;3.60;1.60;;;7.10;77.80;;;;;;5001480;28;20026;-83
2022/02/07 03:35:11;;;;;;;3.38;1.38;;;7.10;77.90;;;;;;5004400;28;20388;-84
2022/02/07 03:37:36;;;;;;;3.35;1.42;;;7.10;77.80;;;;;;5003004;28;20033;-82
2022/02/07 03:40:04;;;;;;;3.13;1.42;;;7.10;77.80;;;;;;5017978;28;20547;-82
2022/02/07 03:42:31;;;;;;;2.97;1.52;;;7.10;77.80;;;;;;5014746;28;20034;-82
2022/02/07 03:45:02;;;;;;;2.00;1.30;;;7.10;77.80;;;;;;5001913;28;20034;-83
2022/02/07 03:47:30;;;;;;;4.25;1.50;;;7.10;77.80;;;;;;5027479;28;20033;-82
2022/02/07 03:49:57;;;;;;;4.72;1.67;;;7.10;77.80;;;;;;5024186;28;20375;-82
2022/02/07 03:52:24;;;;;;;2.03;1.20;;;7.10;77.80;;;;;;5012359;28;20064;-84
2022/02/07 03:54:50;;;;;;;3.65;1.60;;;7.10;77.80;;;;;;5016733;28;20037;-85
2022/02/07 03:57:16;;;;;;;2.78;1.50;;;7.10;77.80;;;;;;5035443;28;20033;-82
2022/02/07 03:59:43;;;;;;;3.05;1.38;;;7.10;77.80;;;;;;5015681;28;20026;-82
2022/02/07 04:02:09;;;;;;;2.88;1.42;;;7.10;77.80;;;;;;4982281;28;20112;-82
2022/02/07 04:04:39;;;;;;;3.50;1.42;;;7.10;77.90;;;;;;5011230;28;20406;-82
2022/02/07 04:07:07;;;;;;;4.22;1.45;;;7.10;77.90;;;;;;5014750;28;20029;-82
2022/02/07 04:09:41;;;;;;;3.33;1.50;;;7.10;77.90;;;;;;5034928;28;20029;-82
2022/02/07 04:12:14;;;;;;;2.35;1.40;;;7.10;77.90;;;;;;5018517;28;20033;-82
2022/02/07 04:14:54;;;;;;;1.98;1.30;;;7.10;77.90;;;;;;5031969;28;20041;-82
2022/02/07 04:17:24;;;;;;;2.95;1.27;;;7.10;77.90;;;;;;4997768;28;20030;-84
2022/02/07 04:19:58;;;;;;;2.53;1.50;;;7.10;77.90;;;;;;5017017;28;20458;-87
2022/02/07 04:22:29;;;;;;;3.40;1.65;;;7.10;77.90;;;;;;5020657;28;20059;-82
2022/02/07 04:24:59;;;;;;;2.60;1.30;;;7.00;77.90;;;;;;4980070;28;20095;-82
2022/02/07 04:27:51;;;;;;;3.95;1.70;;;7.00;77.90;;;;;;5042534;28;20128;-82
2022/02/07 04:30:19;;;;;;;3.03;1.48;;;7.00;77.90;;;;;;5015193;28;20386;-82
2022/02/07 04:32:45;;;;;;;3.60;1.42;;;7.00;77.90;;;;;;5014922;28;20025;-82
2022/02/07 04:35:14;;;;;;;2.65;1.40;;;7.00;77.90;;;;;;5011945;28;20029;-82
2022/02/07 04:37:40;;;;;;;3.70;1.42;;;7.00;77.90;;;;;;5018699;28;20025;-85
2022/02/07 04:40:07;;;;;;;4.43;1.70;;;7.00;77.90;;;;;;4999553;28;20478;-82
2022/02/07 04:42:36;;;;;;;3.45;1.52;;;7.10;78.00;;;;;;5002901;28;20079;-82
2022/02/07 04:45:20;;;;;;;4.05;1.67;;;7.10;78.00;;;;;;5018415;28;20051;-85
2022/02/07 04:48:11;;;;;;;3.42;1.55;;;7.10;78.00;;;;;;5006090;28;20034;-82
2022/02/07 04:50:51;;;;;;;4.60;1.88;;;7.00;77.90;;;;;;5017489;28;20465;-82
2022/02/07 04:58:59;;;;;;;3.28;1.50;;;7.10;78.00;;;;;;5015663;28;20478;-82
2022/02/07 05:01:34;;;;;;;4.00;1.55;;;7.10;78.00;;;;;;5010462;28;20033;-82
2022/02/07 05:04:18;;;;;;;4.15;1.60;;;7.10;78.00;;;;;;5019868;28;20124;-82
2022/02/07 05:14:59;;;;;;;3.67;1.70;;;7.10;78.00;;;;;;5024180;28;20037;-87
2022/02/07 05:17:26;;;;;;;4.88;1.85;;;7.10;78.00;;;;;;5035357;28;20425;-81
2022/02/07 05:20:00;;;;;;;4.30;1.77;;;7.10;78.00;;;;;;5010539;28;20026;-84
2022/02/07 05:22:46;;;;;;;5.60;2.25;;;7.10;78.00;;;;;;5015462;28;20024;-83
2022/02/07 05:25:18;;;;;;;4.10;1.70;;;7.10;78.00;;;;;;5030405;28;20491;-83
2022/02/07 05:27:59;;;;;;;4.28;1.60;;;7.10;78.00;;;;;;4995309;28;20549;-84
2022/02/07 05:30:49;;;;;;;3.33;1.50;;;7.20;78.00;;;;;;5004935;28;20033;-82
2022/02/07 05:33:31;;;;;;;4.40;1.80;;;7.20;78.00;;;;;;5037009;28;20037;-84
2022/02/07 05:36:10;;;;;;;4.03;1.50;;;7.20;78.00;;;;;;5021649;28;20104;-82
2022/02/07 05:39:01;;;;;;;3.72;1.40;;;7.20;78.10;;;;;;5001622;28;20029;-83
2022/02/07 05:41:36;;;;;;;5.00;1.80;;;7.20;78.00;;;;;;5006224;28;20488;-82
2022/02/07 05:44:29;;;;;;;3.97;1.90;;;7.20;78.00;;;;;;5032865;28;20049;-82
2022/02/07 05:47:22;;;;;;;3.92;1.58;;;7.20;78.60;;;;;;5009446;28;20393;-82
2022/02/07 05:50:05;;;;;;;2.78;1.30;;;7.20;78.00;;;;;;5008714;28;20033;-82
2022/02/07 05:53:00;;;;;;;2.55;1.38;;;7.20;78.00;;;;;;5008373;28;20118;-87
2022/02/07 05:55:44;;;;;;;4.32;1.80;;;7.20;78.00;;;;;;5037874;28;20063;-82
2022/02/07 05:58:24;;;;;;;3.35;1.48;;;7.30;78.00;;;;;;5036863;28;20025;-84
2022/02/07 06:01:13;;;;;;;2.80;1.60;;;7.30;78.10;;;;;;5010041;28;20037;-82
2022/02/07 06:03:40;;;;;;;4.05;1.77;;;7.30;78.10;;;;;;5012917;28;20584;-86
2022/02/07 06:06:09;;;;;;;5.30;1.77;;;7.30;78.10;;;;;;5036458;28;20067;-82
2022/02/07 06:08:35;;;;;;;3.08;1.30;;;7.30;78.10;;;;;;5020076;28;20039;-83
2022/02/07 06:11:06;;;;;;;2.58;1.30;;;7.30;78.10;;;;;;5016183;28;20035;-82
2022/02/07 06:13:36;;;;;;;5.03;2.03;;;7.40;78.10;;;;;;5016431;28;20044;-80
2022/02/07 06:16:06;;;;;;;4.82;1.38;;;7.40;78.10;;;;;;5003369;28;20390;-81
2022/02/07 06:18:32;;;;;;;3.60;1.50;;;7.30;78.00;;;;;;5010440;28;20033;-85
2022/02/07 06:21:05;;;;;;;5.47;1.55;;;7.40;78.00;;;;;;5018914;28;20045;-92
2022/02/07 06:23:33;;;;;;;3.15;1.75;;;7.40;78.10;;;;;;5020232;28;20033;-82
2022/02/07 06:26:06;;;;;;;3.70;1.42;;;7.40;78.10;;;;;;5001729;28;20171;-82
2022/02/07 06:28:32;;;;;;;5.40;1.58;;;7.40;78.00;;;;;;5022468;28;20060;-81
2022/02/07 06:31:03;;;;;;;4.18;1.85;;;7.40;78.00;;;;;;5016323;28;20026;-82
2022/02/07 06:33:29;;;;;;;6.80;1.77;;;7.40;78.00;;;;;;5001750;28;20048;-81
2022/02/07 06:35:58;;;;;;;4.88;1.70;;;7.40;78.00;;;;;;5020294;28;20025;-83
2022/02/07 06:38:26;;;;;;;3.13;1.50;;;7.40;78.00;;;;;;5016018;28;20034;-83
2022/02/07 06:40:53;;;;;;;4.47;1.60;;;7.40;78.00;;;;;;5017181;28;20485;-82
2022/02/07 06:43:18;;;;;;;4.90;1.75;;;7.40;78.00;;;;;;4968536;28;20033;-85
2022/02/07 06:45:45;;;;;;;3.15;1.70;;;7.40;78.00;;;;;;5000907;28;20033;-82
2022/02/07 06:48:12;;;;;;;4.32;1.42;;;7.50;78.00;;;;;;4985014;28;20489;-83
2022/02/07 06:50:39;;;;;;;4.45;1.65;;;7.50;78.00;;;;;;5017144;28;20032;-83
2022/02/07 06:53:06;;;;;;;3.85;1.52;;;7.50;78.00;;;;;;5000747;28;20026;-85
2022/02/07 06:55:32;;;;;;;4.03;1.75;;;7.50;78.00;;;;;;5016717;28;20195;-83
2022/02/07 06:57:58;;;;;;;3.83;2.38;;;7.50;78.00;;;;;;5000082;28;20033;-80
2022/02/07 07:00:25;;;;;;;3.35;1.60;;;7.50;78.00;;;;;;5000472;28;20124;-82
2022/02/07 07:02:54;;;;;;;4.60;1.95;;;7.50;78.00;;;;;;5019647;28;20083;-82
2022/02/07 07:05:23;;;;;;;5.22;1.88;;;7.50;78.00;;;;;;5019389;28;20396;-85
2022/02/07 07:07:52;;;;;;;2.40;1.38;;;7.50;78.00;;;;;;5005066;28;20021;-82
2022/02/07 07:10:19;;;;;;;2.83;1.83;;;7.50;77.90;;;;;;5017950;28;20445;-82
2022/02/07 07:12:55;;;;;;;2.30;1.50;;;7.50;77.90;;;;;;5011348;28;20025;-84
2022/02/07 07:15:37;;;;;;;3.95;1.52;;;7.50;77.90;;;;;;5025666;28;20029;-82
2022/02/07 07:18:03;;;;;;;4.18;1.58;;;7.50;77.90;;;;;;5056411;28;20056;-83
2022/02/07 07:20:30;;;;;;;3.08;1.30;;;7.50;77.90;;;;;;4988782;28;20430;-84
2022/02/07 07:22:58;;;;;;;4.47;1.70;;;7.50;77.90;;;;;;5033138;28;20034;-82
2022/02/07 07:25:25;;;;;;;2.45;1.23;;;7.50;77.90;;;;;;4983790;28;20033;-83
2022/02/07 07:28:02;;;;;;;4.10;1.60;;;7.50;77.90;;;;;;4984170;28;20025;-82
2022/02/07 07:30:38;;;;;;;2.80;1.77;;;7.50;77.90;;;;;;5003114;28;20042;-82
2022/02/07 07:33:10;;;;;;;4.40;1.63;;;7.50;77.90;;;;;;5030777;28;20035;-86
2022/02/07 07:35:37;;;;;;;4.03;1.60;;;7.50;77.90;;;;;;5025857;28;20037;-82
2022/02/07 07:38:05;;;;;;;4.05;1.83;;;7.50;77.90;;;;;;5032816;28;20362;-82
2022/02/07 07:40:32;;;;;;;4.13;1.60;;;7.40;77.90;;;;;;4983912;28;20064;-83
2022/02/07 07:42:59;;;;;;;3.47;1.52;;;7.50;77.90;;;;;;5034601;28;20036;-83
2022/02/07 07:45:48;;;;;;;3.63;1.85;;;7.50;77.90;;;;;;5053762;28;20087;-82
2022/02/07 07:48:29;;;;;;;2.92;1.60;;;7.50;77.90;;;;;;5039548;28;20020;-84
2022/02/07 07:51:07;;;;;;;1.83;1.33;;;7.40;77.80;;;;;;5038815;28;20047;-85
2022/02/07 07:54:13;;;;;;;3.45;1.45;;;7.50;77.90;;;;;;5054263;28;20082;-81
2022/02/07 08:02:22;;;;;;;2.75;1.50;;;7.40;77.90;;;;;;5025282;28;20351;-84
2022/02/07 08:04:48;;;;;;;3.22;1.60;;;7.40;77.90;;;;;;5015443;28;20124;-81
2022/02/07 08:12:50;;;;;;;3.10;1.60;;;7.40;77.90;;;;;;5033281;28;20127;-83
2022/02/07 08:15:17;;;;;;;3.22;1.50;;;7.40;77.90;;;;;;5036048;28;20131;-81
2022/02/07 08:17:43;;;;;;;3.25;1.98;;;7.40;77.90;;;;;;5031148;28;20028;-81
2022/02/07 08:20:10;;;;;;;2.90;1.17;;;7.40;78.00;;;;;;5052805;28;20374;-82
2022/02/07 08:22:35;;;;;;;5.22;1.77;;;7.40;78.00;;;;;;5023151;28;20037;-88
2022/02/07 08:25:02;;;;;;;3.83;1.60;;;7.40;78.00;;;;;;5019686;28;20036;-83
2022/02/07 08:27:30;;;;;;;2.80;1.50;;;7.40;78.00;;;;;;4998548;28;20045;-82
2022/02/07 08:29:58;;;;;;;5.00;1.42;;;7.40;78.00;;;;;;5015070;28;20021;-82
2022/02/07 08:32:24;;;;;;;4.15;1.40;;;7.40;78.00;;;;;;5014909;28;20028;-81
2022/02/07 08:34:50;;;;;;;4.90;1.73;;;7.40;77.90;;;;;;4999068;28;20117;-83
2022/02/07 08:37:16;;;;;;;3.08;1.40;;;7.40;77.90;;;;;;5034774;28;20151;-82
2022/02/07 08:39:42;;;;;;;4.57;1.75;;;7.40;77.90;;;;;;5001208;28;20029;-85
2022/02/07 08:42:11;;;;;;;4.82;1.80;;;7.40;77.90;;;;;;5014593;28;20087;-83
2022/02/07 08:44:37;;;;;;;3.47;1.52;;;7.40;78.00;;;;;;5014573;28;20675;-82
2022/02/07 08:47:05;;;;;;;3.90;1.65;;;7.40;78.00;;;;;;5026208;28;20100;-83
2022/02/07 08:49:30;;;;;;;3.42;1.70;;;7.40;78.00;;;;;;4990479;28;20028;-82
2022/02/07 08:51:56;;;;;;;4.57;1.60;;;7.40;78.00;;;;;;5002011;28;20120;-83
2022/02/07 08:54:25;;;;;;;3.22;1.42;;;7.50;78.00;;;;;;5006470;28;20063;-85
2022/02/07 08:56:57;;;;;;;4.68;1.95;;;7.40;78.00;;;;;;5038015;28;20056;-82
2022/02/07 08:59:30;;;;;;;4.47;1.92;;;7.50;78.00;;;;;;5040180;28;20163;-82
2022/02/07 09:05:38;;;;;;;3.95;1.88;;;7.50;78.00;;;;;;5031173;28;20496;-82
2022/02/07 09:07:45;;;;;;;4.75;1.80;;;7.40;78.00;;;;;;5030047;28;20071;-82
2022/02/07 09:10:11;;;;;;;5.10;1.87;;;7.40;78.00;;;;;;5019156;28;20036;-82
2022/02/07 09:12:41;;;;;;;4.30;1.75;;;7.40;78.00;;;;;;5017737;28;20036;-82
2022/02/07 09:15:28;;;;;;;5.65;1.98;;;7.50;78.10;;;;;;5001719;28;20470;-83
2022/02/07 09:17:53;;;;;;;4.80;1.85;;;7.50;78.10;;;;;;5034517;28;20482;-82
2022/02/07 09:20:19;;;;;;;4.45;1.58;;;7.50;78.10;;;;;;5032840;28;20056;-82
2022/02/07 09:22:46;;;;;;;3.90;1.63;;;7.50;78.10;;;;;;5034643;28;20071;-82
2022/02/07 09:25:12;;;;;;;5.28;1.77;;;7.50;78.10;;;;;;5012729;28;20064;-82
2022/02/07 09:27:37;;;;;;;3.50;1.58;;;7.60;78.20;;;;;;4997837;28;20034;-84
2022/02/07 09:30:06;;;;;;;4.72;1.70;;;7.60;78.20;;;;;;4981564;28;20036;-83
2022/02/07 09:32:33;;;;;;;3.50;1.48;;;7.60;78.20;;;;;;5012493;28;20042;-82
2022/02/07 09:34:59;;;;;;;4.80;1.65;;;7.60;78.20;;;;;;5015913;28;20064;-82
2022/02/07 09:37:25;;;;;;;5.60;1.85;;;7.60;78.20;;;;;;5014063;28;20057;-82
2022/02/07 09:39:51;;;;;;;4.93;1.80;;;7.60;78.20;;;;;;4981407;28;20030;-81
2022/02/07 09:42:17;;;;;;;5.18;1.80;;;7.70;78.20;;;;;;5008905;28;20052;-81
2022/02/07 09:44:50;;;;;;;4.35;1.70;;;7.70;78.30;;;;;;4997637;28;20034;-85
2022/02/07 09:47:16;;;;;;;3.85;1.83;;;7.70;78.30;;;;;;5008577;28;20029;-83
2022/02/07 09:49:44;;;;;;;4.55;2.15;;;7.70;78.30;;;;;;5021123;28;20045;-83
2022/02/07 09:52:10;;;;;;;3.50;1.55;;;7.80;78.30;;;;;;5013361;28;20033;-83
2022/02/07 09:54:37;;;;;;;4.38;1.50;;;7.80;78.30;;;;;;5021138;28;20024;-81
2022/02/07 09:57:04;;;;;;;3.05;1.50;;;7.80;78.30;;;;;;5013327;28;20030;-81
2022/02/07 09:59:31;;;;;;;7.40;2.13;;;7.80;78.30;;;;;;4992856;28;20032;-83
2022/02/07 10:02:00;;;;;;;3.38;1.60;;;7.80;78.30;;;;;;5030362;28;20030;-83
2022/02/07 10:04:34;;;;;;;5.30;1.80;;;7.90;78.40;;;;;;5012850;28;20022;-82
2022/02/07 10:07:20;;;;;;;4.32;1.60;;;7.90;78.40;;;;;;4998063;28;20030;-81
2022/02/07 10:10:36;;;;;;;5.05;1.90;;;7.90;78.30;;;;;;5000695;28;20030;-82
2022/02/07 10:12:46;;;;;;;5.90;2.10;;;7.90;78.30;;;;;;5007121;28;20045;-81
2022/02/07 10:15:35;;;;;;;5.30;1.63;;;8.00;78.40;;;;;;5035156;28;20092;-82
2022/02/07 10:18:14;;;;;;;5.72;1.80;;;8.00;78.40;;;;;;5017341;28;20053;-80
2022/02/07 10:21:25;;;;;;;4.03;1.80;;;8.00;78.40;;;;;;5015130;28;20052;-82
2022/02/07 10:46:15;;;;;;;3.40;1.40;;;8.30;78.80;;;;;;5017216;28;20532;-81
2022/02/07 10:48:41;;;;;;;3.13;1.58;;;8.30;78.90;;;;;;5017112;28;20029;-81
2022/02/07 10:51:18;;;;;;;4.32;1.60;;;8.40;78.70;;;;;;4999966;28;20025;-81
2022/02/07 10:53:51;;;;;;;4.13;1.73;;;8.40;78.80;;;;;;5017904;28;20072;-82
2022/02/07 10:56:20;;;;;;;2.65;1.52;;;8.40;78.80;;;;;;5035509;28;20026;-83
2022/02/07 10:58:49;;;;;;;3.90;1.73;;;8.50;78.90;;;;;;5015813;28;20118;-81
2022/02/07 11:04:00;;;;;;;2.50;1.50;;;8.60;78.90;;;;;;5003324;28;20135;-81
2022/02/07 11:06:35;;;;;;;3.47;1.67;;;8.60;78.90;;;;;;5017069;28;20025;-85
2022/02/07 11:09:10;;;;;;;4.43;1.60;;;8.60;78.90;;;;;;5016523;28;20025;-79
2022/02/07 11:23:09;;;;;;;4.75;1.70;;;8.80;78.90;;;;;;5035794;28;20052;-80
2022/02/07 11:25:16;;;;;;;3.33;1.50;;;8.90;79.00;;;;;;5012639;28;20034;-82
2022/02/07 11:27:53;;;;;;;3.92;1.65;;;8.90;78.90;;;;;;5016564;28;20037;-80
2022/02/07 11:30:41;;;;;;;3.47;1.60;;;8.90;78.90;;;;;;4999164;28;20025;-81
2022/02/07 11:33:26;;;;;;;4.45;1.70;;;8.90;78.90;;;;;;4998699;28;20041;-81
2022/02/07 11:35:52;;;;;;;3.38;1.30;;;9.00;78.90;;;;;;5008290;28;20078;-82
2022/02/07 11:38:18;;;;;;;2.30;1.40;;;9.00;78.90;;;;;;4999710;28;20029;-80
2022/02/07 11:41:03;;;;;;;4.82;1.38;;;9.00;78.90;;;;;;5000209;28;20029;-84
2022/02/07 11:43:31;;;;;;;3.55;2.08;;;9.10;79.00;;;;;;5018840;28;20033;-89
2022/02/07 11:45:57;;;;;;;4.55;1.60;;;9.10;79.50;;;;;;5024348;28;20109;-87
2022/02/07 11:48:25;;;;;;;3.22;1.60;;;9.10;78.90;;;;;;5034383;28;20098;-87
2022/02/07 11:50:55;;;;;;;5.20;1.42;;;9.10;78.90;;;;;;5016689;28;20047;-80
2022/02/07 11:53:26;;;;;;;2.30;1.35;;;9.20;78.90;;;;;;5018972;28;20119;-82
2022/02/07 11:56:08;;;;;;;2.28;1.23;;;9.20;78.90;;;;;;5016789;28;20030;-80
2022/02/07 11:58:48;;;;;;;3.95;1.75;;;9.20;78.90;;;;;;5015263;28;20057;-82
2022/02/07 12:01:20;;;;;;;4.93;1.65;;;9.20;78.90;;;;;;5022175;28;20043;-84
2022/02/07 12:03:52;;;;;;;4.78;1.75;;;9.30;78.80;;;;;;5036968;28;20367;-82
2022/02/07 12:06:23;;;;;;;1.38;1.20;;;9.30;78.90;;;;;;5018329;28;20040;-79
2022/02/07 12:08:49;;;;;;;3.65;1.40;;;9.30;78.80;;;;;;5052130;28;20029;-82
2022/02/07 12:11:16;;;;;;;2.95;1.42;;;9.30;78.80;;;;;;5014897;28;20382;-86
2022/02/07 12:13:43;;;;;;;4.60;1.48;;;9.30;78.80;;;;;;5016558;28;20488;-88
2022/02/07 12:16:20;;;;;;;3.35;1.52;;;9.40;78.80;;;;;;5017112;28;20083;-89
2022/02/07 12:19:08;;;;;;;4.65;1.83;;;9.40;78.80;;;;;;5017436;28;20057;-87
2022/02/07 12:21:34;;;;;;;3.90;1.40;;;9.40;78.70;;;;;;4999021;28;20161;-83
2022/02/07 12:24:04;;;;;;;3.20;1.50;;;9.40;78.70;;;;;;4998861;28;20444;-82
2022/02/07 12:26:36;;;;;;;3.25;1.30;;;9.40;78.70;;;;;;5011005;28;20061;-82
2022/02/07 12:29:08;;;;;;;3.00;1.63;;;9.50;78.80;;;;;;4998500;28;20087;-81
2022/02/07 12:31:40;;;;;;;2.95;1.50;;;9.50;78.80;;;;;;5002601;28;20029;-85
2022/02/07 12:34:12;;;;;;;3.95;1.38;;;9.50;78.70;;;;;;5035834;28;20063;-80
2022/02/07 12:36:39;;;;;;;4.47;1.30;;;9.50;78.70;;;;;;5012628;28;20033;-81
2022/02/07 12:39:14;;;;;;;2.13;1.40;;;9.60;78.70;;;;;;5031706;28;20029;-81
2022/02/07 12:41:41;;;;;;;4.43;1.63;;;9.60;78.80;;;;;;5026936;28;20033;-80
2022/02/07 12:44:09;;;;;;;4.25;1.40;;;9.60;78.70;;;;;;5052659;28;20566;-80
2022/02/07 12:46:36;;;;;;;3.13;1.42;;;9.70;78.70;;;;;;5000793;28;20033;-82
2022/02/07 12:49:09;;;;;;;2.92;1.30;;;9.70;78.70;;;;;;4998731;28;20076;-81
2022/02/07 12:51:42;;;;;;;3.25;1.70;;;9.70;78.70;;;;;;4998497;28;20032;-81
2022/02/07 12:54:09;;;;;;;4.50;1.60;;;9.70;78.70;;;;;;5015190;28;20064;-80
2022/02/07 12:56:36;;;;;;;2.75;1.40;;;9.70;78.70;;;;;;5025285;28;20068;-80
2022/02/07 12:59:03;;;;;;;1.63;1.17;;;9.80;78.70;;;;;;5034345;28;20037;-80
2022/02/07 13:01:35;;;;;;;2.90;1.30;;;9.80;78.70;;;;;;5051133;28;20024;-80
2022/02/07 13:04:04;;;;;;;3.75;1.40;;;9.80;78.70;;;;;;5017683;28;20033;-80
2022/02/07 13:06:31;;;;;;;3.13;1.45;;;9.90;78.70;;;;;;5021129;28;20025;-85
2022/02/07 13:09:00;;;;;;;2.92;1.48;;;9.90;78.70;;;;;;5014298;28;20095;-81
2022/02/07 13:11:31;;;;;;;2.85;1.50;;;9.90;78.60;;;;;;5026021;28;20025;-80
2022/02/07 13:13:58;;;;;;;3.65;1.40;;;9.90;78.60;;;;;;5050878;28;20056;-80
2022/02/07 13:16:30;;;;;;;4.35;1.35;;;10.00;78.60;;;;;;5041753;28;20025;-80
2022/02/07 13:19:08;;;;;;;5.57;1.33;;;10.00;78.60;;;;;;5016380;28;20026;-84
2022/02/07 13:21:41;;;;;;;4.68;1.58;;;10.00;78.60;;;;;;5012066;28;20046;-81
2022/02/07 13:24:17;;;;;;;2.97;1.45;;;10.00;78.50;;;;;;4995238;28;20037;-80
2022/02/07 13:26:48;;;;;;;2.17;1.27;;;10.10;78.60;;;;;;5013176;28;20037;-81
2022/02/07 13:29:41;;;;;;;2.67;1.20;;;10.10;79.10;;;;;;4994963;28;20108;-80
2022/02/07 13:32:08;;;;;;;1.90;1.42;;;10.10;78.50;;;;;;5013404;28;20033;-86
2022/02/07 13:34:36;;;;;;;2.22;1.38;;;10.10;78.40;;;;;;5030526;28;20067;-80
2022/02/07 13:37:10;;;;;;;2.38;1.20;;;10.10;78.40;;;;;;5028643;28;20033;-80
2022/02/07 13:39:57;;;;;;;2.85;1.40;;;10.10;78.40;;;;;;5011426;28;20061;-80
2022/02/07 13:42:32;;;;;;;2.63;1.35;;;10.10;78.50;;;;;;5014783;28;20053;-80
2022/02/07 13:45:09;;;;;;;4.47;1.48;;;10.20;78.40;;;;;;5029898;28;20029;-80
2022/02/07 13:47:37;;;;;;;3.05;1.38;;;10.20;78.40;;;;;;5025126;28;20088;-81
2022/02/07 13:50:25;;;;;;;4.22;1.20;;;10.20;78.30;;;;;;5013739;28;20481;-81
2022/02/07 13:52:53;;;;;;;2.53;1.40;;;10.30;78.40;;;;;;5027457;28;20037;-80
2022/02/07 13:55:23;;;;;;;3.38;1.45;;;10.30;78.30;;;;;;5029302;28;20033;-80
2022/02/07 13:58:03;;;;;;;3.55;1.33;;;10.30;78.30;;;;;;5054180;28;20039;-84
2022/02/07 14:00:33;;;;;;;3.65;1.42;;;10.30;78.30;;;;;;5037616;28;20037;-80
2022/02/07 14:03:10;;;;;;;3.13;1.40;;;10.30;78.20;;;;;;5037598;28;20040;-81
2022/02/07 14:06:05;;;;;;;2.78;1.17;;;10.30;78.20;;;;;;5054995;28;20031;-81
2022/02/07 14:08:53;;;;;;;2.17;1.40;;;10.30;78.10;;;;;;5054433;28;20130;-85
2022/02/07 14:11:30;;;;;;;2.63;1.40;;;10.40;78.20;;;;;;5043330;28;20037;-81
2022/02/07 14:14:05;;;;;;;3.50;1.40;;;10.40;78.10;;;;;;5033044;28;20116;-85
2022/02/07 14:16:32;;;;;;;2.45;1.23;;;10.40;78.00;;;;;;5017620;28;20025;-81
2022/02/07 14:18:57;;;;;;;2.53;1.27;;;10.50;78.00;;;;;;5033709;28;20018;-85
2022/02/07 14:21:26;;;;;;;3.75;1.20;;;10.50;77.90;;;;;;5017365;28;20041;-80
2022/02/07 14:23:54;;;;;;;3.38;1.20;;;10.50;77.80;;;;;;5015087;28;20038;-80
2022/02/07 14:26:21;;;;;;;3.80;1.83;;;10.60;77.80;;;;;;5034686;28;20036;-81
2022/02/07 14:28:56;;;;;;;4.72;1.92;;;10.60;77.80;;;;;;5016976;28;20114;-81
2022/02/07 14:31:23;;;;;;;3.13;1.42;;;10.60;77.70;;;;;;5033698;28;20389;-81
2022/02/07 14:33:49;;;;;;;3.53;1.85;;;10.70;77.70;;;;;;5016854;28;20044;-81
2022/02/07 14:36:15;;;;;;;2.25;1.23;;;10.70;77.60;;;;;;5013918;28;20064;-81
2022/02/07 14:38:41;;;;;;;3.05;1.25;;;10.70;77.50;;;;;;5022691;28;20061;-82
2022/02/07 14:41:09;;;;;;;2.40;1.42;;;10.70;77.50;;;;;;5017044;28;20040;-82
2022/02/07 14:43:37;;;;;;;2.60;1.13;;;10.80;77.50;;;;;;4984582;28;20065;-81
2022/02/07 14:48:30;;;;;;;2.45;1.10;;;10.80;77.40;;;;;;5016517;28;20026;-81
2022/02/07 14:50:57;;;;;;;3.15;1.10;;;10.80;77.30;;;;;;4999144;28;20051;-82
2022/02/07 14:53:22;;;;;;;2.92;1.45;;;10.80;77.30;;;;;;5016235;28;20021;-82
2022/02/07 14:55:49;;;;;;;2.55;1.40;;;10.90;77.30;;;;;;4976845;28;20105;-82
2022/02/07 14:58:15;;;;;;;3.55;1.42;;;10.90;77.20;;;;;;5007949;28;20108;-81
2022/02/07 15:00:41;;;;;;;3.53;1.20;;;10.90;77.10;;;;;;5002997;28;20435;-81
2022/02/07 15:03:10;;;;;;;3.40;1.30;;;11.00;77.10;;;;;;4984226;28;20053;-82
2022/02/07 15:05:36;;;;;;;4.65;1.40;;;11.00;77.00;;;;;;4999620;28;20033;-81
2022/02/07 15:08:04;;;;;;;3.72;1.25;;;11.00;77.00;;;;;;4989275;28;20425;-82
2022/02/07 15:10:32;;;;;;;1.85;1.10;;;11.00;76.90;;;;;;5034573;28;20068;-82
2022/02/07 15:12:57;;;;;;;1.60;1.10;;;11.00;76.90;;;;;;4999655;28;20034;-82
2022/02/07 15:15:23;;;;;;;2.13;1.10;;;11.00;76.80;;;;;;4996386;28;20041;-81
2022/02/07 15:17:49;;;;;;;2.67;1.27;;;11.00;76.80;;;;;;5014388;28;20030;-90
2022/02/07 15:20:15;;;;;;;3.60;1.63;;;11.00;76.80;;;;;;4982952;28;20030;-87
2022/02/07 15:22:52;;;;;;;2.55;1.15;;;11.00;76.80;;;;;;4978495;28;20486;-89
2022/02/07 15:25:29;;;;;;;2.35;1.35;;;11.10;76.80;;;;;;4986384;28;20119;-88
2022/02/07 15:28:04;;;;;;;3.75;1.35;;;11.10;76.80;;;;;;5006656;28;20065;-88
2022/02/07 15:30:40;;;;;;;1.75;1.17;;;11.00;76.70;;;;;;4982251;28;20465;-86
2022/02/07 15:33:13;;;;;;;2.42;1.20;;;11.00;76.70;;;;;;4998597;28;20030;-85